createdAt,value
2023-02-04T00:00:23.460Z,102236.97
2023-02-04T00:02:50.968Z,102247.28
2023-02-04T00:05:18.772Z,102243.81
2023-02-04T00:07:45.708Z,102254.13
2023-02-04T00:10:12.717Z,102255.72
2023-02-04T00:12:39.764Z,102268.47
2023-02-04T00:15:06.994Z,102264.75
2023-02-04T00:17:33.872Z,102277.53
2023-02-04T00:20:00.749Z,102280.00
2023-02-04T00:22:29.051Z,102287.66
2023-02-04T00:24:56.107Z,102288.38
2023-02-04T00:27:23.032Z,102300.13
2023-02-04T00:29:49.976Z,102313.78
2023-02-04T00:32:17.073Z,102322.34
2023-02-04T00:34:44.045Z,102331.66
2023-02-04T00:37:10.985Z,102338.34
2023-02-04T00:39:38.324Z,102344.09
2023-02-04T00:42:06.392Z,102337.44
2023-02-04T00:44:33.325Z,102357.25
2023-02-04T00:47:00.292Z,102362.13
2023-02-04T00:49:27.177Z,102364.41
2023-02-04T00:51:54.131Z,102370.19
2023-02-04T00:54:21.244Z,102382.06
2023-02-04T00:56:48.143Z,102400.78
2023-02-04T00:59:15.697Z,102402.19
2023-02-04T01:01:42.997Z,102419.94
2023-02-04T01:04:10.147Z,102416.56
2023-02-04T01:06:37.597Z,102425.66
2023-02-04T01:09:05.158Z,102442.41
2023-02-04T01:11:32.654Z,102454.84
2023-02-04T01:13:59.869Z,102466.50
2023-02-04T01:16:26.829Z,102466.72
2023-02-04T01:18:55.971Z,102468.38
2023-02-04T01:21:24.817Z,102460.19
2023-02-04T01:23:52.092Z,102462.59
2023-02-04T01:26:19.817Z,102470.13
2023-02-04T01:28:47.571Z,102483.47
2023-02-04T01:31:15.337Z,102498.06
2023-02-04T01:33:42.514Z,102498.22
2023-02-04T01:36:09.929Z,102518.03
2023-02-04T01:38:36.848Z,102502.50
2023-02-04T01:41:06.246Z,102514.84
2023-02-04T01:43:34.111Z,102513.69
2023-02-04T01:46:02.550Z,102523.72
2023-02-04T01:48:30.520Z,102530.66
2023-02-04T01:51:06.375Z,102534.19
2023-02-04T01:53:35.073Z,102536.19
2023-02-04T01:56:14.473Z,102558.84
2023-02-04T01:58:41.392Z,102552.28
2023-02-04T02:01:15.543Z,102567.25
2023-02-04T02:03:42.990Z,102575.47
2023-02-04T02:06:10.951Z,102588.72
2023-02-04T02:08:38.358Z,102597.25
2023-02-04T02:11:05.520Z,102597.97
2023-02-04T02:13:32.535Z,102612.25
2023-02-04T02:15:59.426Z,102617.88
2023-02-04T02:18:26.312Z,102616.00
2023-02-04T02:20:53.292Z,102621.38
2023-02-04T02:23:48.490Z,102632.41
2023-02-04T02:26:17.281Z,102638.16
2023-02-04T02:28:45.503Z,102640.53
2023-02-04T02:31:12.976Z,102640.63
2023-02-04T02:33:40.107Z,102649.16
2023-02-04T02:36:07.449Z,102657.38
2023-02-04T02:38:34.440Z,102659.25
2023-02-04T02:41:01.735Z,102667.69
2023-02-04T02:43:29.649Z,102670.03
2023-02-04T02:46:00.121Z,102675.41
2023-02-04T02:48:27.160Z,102685.50
2023-02-04T02:50:54.111Z,102689.59
2023-02-04T02:53:22.429Z,102691.09
2023-02-04T02:55:49.975Z,102691.66
2023-02-04T02:58:28.814Z,102707.81
2023-02-04T03:00:57.173Z,102709.16
2023-02-04T03:03:32.451Z,102716.59
2023-02-04T03:06:08.675Z,102718.78
2023-02-04T03:08:36.255Z,102723.63
2023-02-04T03:11:03.600Z,102732.72
2023-02-04T03:13:31.470Z,102728.94
2023-02-04T03:15:58.766Z,102735.56
2023-02-04T03:18:25.825Z,102748.44
2023-02-04T03:20:52.902Z,102754.69
2023-02-04T03:23:20.702Z,102766.19
2023-02-04T03:25:47.851Z,102776.91
2023-02-04T03:28:14.854Z,102783.16
2023-02-04T03:30:41.923Z,102789.28
2023-02-04T03:33:08.905Z,102791.97
2023-02-04T03:35:35.846Z,102798.91
2023-02-04T03:38:02.781Z,102803.16
2023-02-04T03:40:30.148Z,102820.63
2023-02-04T03:42:57.322Z,102818.13
2023-02-04T03:45:24.937Z,102831.28
2023-02-04T03:47:51.985Z,102841.97
2023-02-04T03:50:18.998Z,102844.75
2023-02-04T03:52:45.925Z,102847.63
2023-02-04T03:55:12.825Z,102852.91
2023-02-04T03:57:39.728Z,102865.97
2023-02-04T04:00:07.365Z,102867.69
2023-02-04T04:02:41.076Z,102871.72
2023-02-04T04:05:09.280Z,102875.91
2023-02-04T04:07:36.161Z,102880.63
2023-02-04T04:10:03.729Z,102898.09
2023-02-04T04:12:30.596Z,102903.13
2023-02-04T04:14:57.513Z,102905.38
2023-02-04T04:17:24.423Z,102914.09
2023-02-04T04:19:51.310Z,102908.28
2023-02-04T04:22:18.383Z,102924.97
2023-02-04T04:24:45.446Z,102926.31
2023-02-04T04:27:12.312Z,102938.22
2023-02-04T04:29:39.262Z,102933.63
2023-02-04T04:32:06.283Z,102942.16
2023-02-04T04:34:33.319Z,102946.09
2023-02-04T04:37:00.246Z,102960.88
2023-02-04T04:39:27.121Z,102966.09
2023-02-04T04:41:53.985Z,102967.66
2023-02-04T04:44:20.882Z,102970.16
2023-02-04T04:46:47.924Z,102975.31
2023-02-04T04:49:14.818Z,102976.75
2023-02-04T04:51:41.687Z,102983.72
2023-02-04T04:54:08.633Z,102985.41
2023-02-04T04:56:35.501Z,102993.13
2023-02-04T04:59:03.344Z,103000.63
2023-02-04T05:01:30.346Z,103017.63
2023-02-04T05:03:57.251Z,103018.31
2023-02-04T05:06:25.428Z,103023.59
2023-02-04T05:08:53.030Z,103022.91
2023-02-04T05:11:20.659Z,103039.84
2023-02-04T05:13:47.978Z,103046.53
2023-02-04T05:16:15.949Z,103060.00
2023-02-04T05:18:43.043Z,103065.16
2023-02-04T05:21:09.933Z,103074.44
2023-02-04T05:23:36.817Z,103075.88
2023-02-04T05:26:03.708Z,103085.16
2023-02-04T05:28:30.610Z,103077.22
2023-02-04T05:30:57.598Z,103090.75
2023-02-04T05:33:24.526Z,103096.69
2023-02-04T05:35:51.418Z,103097.38
2023-02-04T05:38:18.333Z,103104.88
2023-02-04T05:40:45.228Z,103103.50
2023-02-04T05:43:12.207Z,103106.53
2023-02-04T05:45:39.199Z,103119.72
2023-02-04T05:48:06.167Z,103133.22
2023-02-04T05:50:33.580Z,103130.44
2023-02-04T05:53:10.020Z,103138.81
2023-02-04T05:55:36.957Z,103132.34
2023-02-04T05:58:03.840Z,103142.72
2023-02-04T06:00:31.002Z,103150.44
2023-02-04T06:02:58.108Z,103158.06
2023-02-04T06:05:25.052Z,103160.50
2023-02-04T06:07:52.001Z,103158.59
2023-02-04T06:10:18.997Z,103159.25
2023-02-04T06:12:45.863Z,103163.25
2023-02-04T06:15:13.056Z,103167.41
2023-02-04T06:17:40.555Z,103158.47
2023-02-04T06:20:09.308Z,103169.84
2023-02-04T06:22:36.178Z,103174.13
2023-02-04T06:25:03.085Z,103173.88
2023-02-04T06:27:29.974Z,103175.31
2023-02-04T06:29:57.413Z,103174.84
2023-02-04T06:32:24.453Z,103177.06
2023-02-04T06:34:51.363Z,103175.28
2023-02-04T06:37:18.315Z,103174.13
2023-02-04T06:39:45.249Z,103174.56
2023-02-04T06:42:12.134Z,103181.38
2023-02-04T06:44:39.026Z,103185.25
2023-02-04T06:47:05.915Z,103183.56
2023-02-04T06:49:32.797Z,103181.53
2023-02-04T06:51:59.704Z,103182.09
2023-02-04T06:54:26.577Z,103187.75
2023-02-04T06:56:53.559Z,103204.84
2023-02-04T06:59:20.442Z,103205.38
2023-02-04T07:01:47.372Z,103204.34
2023-02-04T07:04:14.313Z,103218.00
2023-02-04T07:06:41.198Z,103194.53
2023-02-04T07:09:08.111Z,103218.41
2023-02-04T07:11:34.968Z,103227.66
2023-02-04T07:14:02.458Z,103229.84
2023-02-04T07:16:29.327Z,103242.69
2023-02-04T07:18:56.198Z,103248.06
2023-02-04T07:21:23.084Z,103243.19
2023-02-04T07:23:49.958Z,103248.81
2023-02-04T07:26:16.843Z,103257.00
2023-02-04T07:28:44.482Z,103266.91
2023-02-04T07:31:11.513Z,103278.47
2023-02-04T07:33:38.518Z,103286.50
2023-02-04T07:36:05.528Z,103285.50
2023-02-04T07:38:32.430Z,103310.81
2023-02-04T07:40:59.357Z,103309.50
2023-02-04T07:43:26.376Z,103305.00
2023-02-04T07:45:53.284Z,103318.63
2023-02-04T07:48:20.158Z,103324.75
2023-02-04T07:50:47.058Z,103334.81
2023-02-04T07:53:14.304Z,103346.25
2023-02-04T07:55:41.225Z,103352.84
2023-02-04T07:58:08.157Z,103350.78
2023-02-04T08:00:35.041Z,103348.75
2023-02-04T08:03:01.956Z,103349.66
2023-02-04T08:05:30.372Z,103348.09
2023-02-04T08:07:58.522Z,103346.56
2023-02-04T08:10:25.447Z,103353.88
2023-02-04T08:12:52.314Z,103355.00
2023-02-04T08:15:19.209Z,103355.59
2023-02-04T08:17:46.076Z,103364.06
2023-02-04T08:20:13.026Z,103370.06
2023-02-04T08:22:40.065Z,103371.22
2023-02-04T08:25:07.378Z,103377.13
2023-02-04T08:27:34.259Z,103373.66
2023-02-04T08:30:01.162Z,103378.72
2023-02-04T08:32:29.236Z,103381.28
2023-02-04T08:34:56.142Z,103381.16
2023-02-04T08:37:23.109Z,103393.34
2023-02-04T08:39:50.007Z,103389.34
2023-02-04T08:42:17.178Z,103396.78
2023-02-04T08:44:44.266Z,103398.28
2023-02-04T08:47:11.798Z,103400.03
2023-02-04T08:49:41.929Z,103408.50
2023-02-04T08:52:09.025Z,103403.16
2023-02-04T08:54:36.186Z,103405.28
2023-02-04T08:57:03.632Z,103408.25
2023-02-04T08:59:30.737Z,103409.47
2023-02-04T09:01:57.707Z,103420.09
2023-02-04T09:04:24.926Z,103414.94
2023-02-04T09:06:52.152Z,103426.03
2023-02-04T09:09:21.615Z,103445.59
2023-02-04T09:11:49.476Z,103428.47
2023-02-04T09:14:17.170Z,103431.97
2023-02-04T09:16:44.121Z,103434.19
2023-02-04T09:19:12.780Z,103439.69
2023-02-04T09:21:39.730Z,103435.66
2023-02-04T09:24:06.620Z,103438.25
2023-02-04T09:26:33.530Z,103438.38
2023-02-04T09:29:00.428Z,103443.09
2023-02-04T09:31:27.401Z,103445.03
2023-02-04T09:33:54.360Z,103462.84
2023-02-04T09:36:21.380Z,103459.63
2023-02-04T09:38:48.261Z,103464.47
2023-02-04T09:41:15.370Z,103464.44
2023-02-04T09:43:45.115Z,103467.97
2023-02-04T09:46:23.181Z,103458.13
2023-02-04T09:48:50.989Z,103467.50
2023-02-04T09:51:22.766Z,103460.09
2023-02-04T09:53:50.345Z,103467.41
2023-02-04T09:56:19.262Z,103465.97
2023-02-04T09:58:46.331Z,103465.53
2023-02-04T10:01:19.246Z,103465.88
2023-02-04T10:03:50.151Z,103478.31
2023-02-04T10:06:21.142Z,103475.53
2023-02-04T10:08:50.737Z,103476.88
2023-02-04T10:11:20.033Z,103476.09
2023-02-04T10:13:50.759Z,103479.66
2023-02-04T10:16:29.868Z,103485.63
2023-02-04T10:19:07.207Z,103475.31
2023-02-04T10:21:39.807Z,103479.00
2023-02-04T10:24:26.440Z,103475.66
2023-02-04T10:26:54.012Z,103474.41
2023-02-04T10:29:25.705Z,103471.28
2023-02-04T10:31:53.267Z,103471.63
2023-02-04T10:34:39.736Z,103483.16
2023-02-04T10:37:20.578Z,103491.03
2023-02-04T10:39:49.202Z,103493.38
2023-02-04T10:42:30.528Z,103490.00
2023-02-04T10:44:58.222Z,103499.91
2023-02-04T10:47:31.459Z,103495.94
2023-02-04T10:50:24.222Z,103500.00
2023-02-04T10:53:18.518Z,103502.22
2023-02-04T10:55:47.804Z,103506.59
2023-02-04T10:58:23.173Z,103512.78
2023-02-04T11:00:50.067Z,103513.13
2023-02-04T11:03:26.608Z,103515.38
2023-02-04T11:05:58.268Z,103516.03
2023-02-04T11:08:33.615Z,103506.66
2023-02-04T11:11:19.303Z,103507.06
2023-02-04T11:14:03.161Z,103521.22
2023-02-04T11:16:35.433Z,103510.91
2023-02-04T11:19:12.170Z,103520.78
2023-02-04T11:21:38.907Z,103527.28
2023-02-04T11:24:05.653Z,103523.34
2023-02-04T11:26:38.223Z,103526.50
2023-02-04T11:29:04.964Z,103522.00
2023-02-04T11:31:34.684Z,103523.69
2023-02-04T11:34:15.039Z,103522.34
2023-02-04T11:37:03.785Z,103532.00
2023-02-04T11:39:47.784Z,103531.31
2023-02-04T11:42:23.371Z,103546.69
2023-02-04T11:44:59.445Z,103548.63
2023-02-04T11:47:28.103Z,103541.09
2023-02-04T11:50:03.572Z,103542.56
2023-02-04T11:52:30.535Z,103538.72
2023-02-04T11:55:00.677Z,103541.19
2023-02-04T11:57:28.133Z,103548.59
2023-02-04T11:59:55.463Z,103538.50
2023-02-04T12:02:26.059Z,103550.97
2023-02-04T12:05:13.350Z,103559.19
2023-02-04T12:07:40.509Z,103560.88
2023-02-04T12:10:23.275Z,103557.81
2023-02-04T12:12:58.051Z,103556.13
2023-02-04T12:15:36.201Z,103566.78
2023-02-04T12:18:09.845Z,103546.72
2023-02-04T12:20:37.433Z,103564.91
2023-02-04T12:23:05.309Z,103571.75
2023-02-04T12:25:32.855Z,103577.69
2023-02-04T12:28:00.121Z,103583.31
2023-02-04T12:30:27.286Z,103573.31
2023-02-04T12:32:54.171Z,103584.88
2023-02-04T12:35:21.075Z,103568.69
2023-02-04T12:37:47.953Z,103589.38
2023-02-04T12:40:18.014Z,103588.56
2023-02-04T12:42:45.068Z,103596.66
2023-02-04T12:45:14.909Z,103599.72
2023-02-04T12:47:42.046Z,103589.47
2023-02-04T12:50:11.362Z,103582.72
2023-02-04T12:52:39.386Z,103581.16
2023-02-04T12:55:09.059Z,103592.84
2023-02-04T12:57:36.256Z,103592.72
2023-02-04T13:00:04.541Z,103588.13
2023-02-04T13:02:31.422Z,103604.63
2023-02-04T13:04:58.285Z,103596.22
2023-02-04T13:07:25.178Z,103592.06
2023-02-04T13:09:52.424Z,103591.28
2023-02-04T13:12:19.362Z,103582.28
2023-02-04T13:14:46.255Z,103604.75
2023-02-04T13:17:13.155Z,103606.53
2023-02-04T13:19:40.214Z,103616.53
2023-02-04T13:22:07.144Z,103607.44
2023-02-04T13:24:34.088Z,103611.47
2023-02-04T13:27:01.042Z,103620.91
2023-02-04T13:29:27.927Z,103601.28
2023-02-04T13:31:54.883Z,103618.78
2023-02-04T13:34:21.797Z,103627.56
2023-02-04T13:36:48.679Z,103621.81
2023-02-04T13:39:15.946Z,103630.09
2023-02-04T13:41:42.918Z,103641.09
2023-02-04T13:44:09.810Z,103640.00
2023-02-04T13:46:36.908Z,103637.97
2023-02-04T13:49:04.081Z,103643.66
2023-02-04T13:51:31.330Z,103633.00
2023-02-04T13:53:59.363Z,103641.22
2023-02-04T13:56:27.723Z,103638.84
2023-02-04T13:58:54.747Z,103641.34
2023-02-04T14:01:21.678Z,103643.66
2023-02-04T14:03:48.556Z,103643.66
2023-02-04T14:06:15.641Z,103649.13
2023-02-04T14:08:42.535Z,103661.09
2023-02-04T14:11:09.760Z,103660.66
2023-02-04T14:13:36.651Z,103656.38
2023-02-04T14:16:03.851Z,103655.13
2023-02-04T14:18:30.882Z,103654.22
2023-02-04T14:20:57.767Z,103656.81
2023-02-04T14:23:24.640Z,103647.66
2023-02-04T14:25:51.546Z,103642.38
2023-02-04T14:28:18.452Z,103647.91
2023-02-04T14:30:45.469Z,103648.56
2023-02-04T14:33:12.941Z,103656.19
2023-02-04T14:35:39.839Z,103660.69
2023-02-04T14:38:06.720Z,103655.19
2023-02-04T14:40:33.857Z,103657.16
2023-02-04T14:43:00.878Z,103666.84
2023-02-04T14:45:27.776Z,103660.47
2023-02-04T14:47:57.091Z,103653.28
2023-02-04T14:50:27.071Z,103664.84
2023-02-04T14:52:56.730Z,103670.66
2023-02-04T14:55:24.776Z,103675.94
2023-02-04T14:57:51.890Z,103680.06
2023-02-04T15:00:20.330Z,103677.34
2023-02-04T15:02:47.552Z,103678.81
2023-02-04T15:05:15.218Z,103686.16
2023-02-04T15:07:42.534Z,103689.25
2023-02-04T15:10:10.692Z,103691.97
2023-02-04T15:12:37.778Z,103686.94
2023-02-04T15:15:06.301Z,103677.16
2023-02-04T15:17:33.190Z,103685.50
2023-02-04T15:20:00.177Z,103687.94
2023-02-04T15:22:27.054Z,103692.72
2023-02-04T15:24:53.930Z,103605.44
2023-02-04T15:27:20.800Z,103691.19
2023-02-04T15:29:47.675Z,103686.47
2023-02-04T15:32:14.570Z,103697.03
2023-02-04T15:34:41.457Z,103691.91
2023-02-04T15:37:10.843Z,103702.59
2023-02-04T15:39:38.771Z,103697.94
2023-02-04T15:42:05.645Z,103698.75
2023-02-04T15:44:32.815Z,103704.00
2023-02-04T15:46:59.700Z,103703.25
2023-02-04T15:49:26.562Z,103705.19
2023-02-04T15:51:53.436Z,103703.75
2023-02-04T15:54:20.332Z,103706.19
2023-02-04T15:56:47.250Z,103708.00
2023-02-04T15:59:15.859Z,103715.19
2023-02-04T16:01:42.789Z,103717.91
2023-02-04T16:04:09.840Z,103725.63
2023-02-04T16:06:36.782Z,103710.44
2023-02-04T16:09:04.009Z,103725.22
2023-02-04T16:11:31.309Z,103732.56
2023-02-04T16:13:58.706Z,103739.25
2023-02-04T16:16:25.632Z,103727.78
2023-02-04T16:18:52.505Z,103727.53
2023-02-04T16:21:19.442Z,103723.78
2023-02-04T16:23:47.169Z,103728.19
2023-02-04T16:26:14.188Z,103730.34
2023-02-04T16:28:41.261Z,103734.47
2023-02-04T16:31:11.279Z,103734.69
2023-02-04T16:33:38.225Z,103746.41
2023-02-04T16:36:08.480Z,103742.53
2023-02-04T16:38:36.662Z,103752.03
2023-02-04T16:41:03.622Z,103758.19
2023-02-04T16:43:30.569Z,103772.94
2023-02-04T16:45:57.598Z,103759.94
2023-02-04T16:48:24.801Z,103764.19
2023-02-04T16:50:51.697Z,103765.84
2023-02-04T16:53:18.613Z,103754.75
2023-02-04T16:55:47.795Z,103772.59
2023-02-04T16:58:15.380Z,103774.78
2023-02-04T17:00:43.998Z,103769.22
2023-02-04T17:03:14.905Z,103771.81
2023-02-04T17:05:42.181Z,103778.06
2023-02-04T17:08:09.912Z,103770.72
2023-02-04T17:10:56.539Z,103778.25
2023-02-04T17:13:23.438Z,103782.97
2023-02-04T17:15:50.348Z,103780.78
2023-02-04T17:18:17.318Z,103789.72
2023-02-04T17:20:44.238Z,103795.50
2023-02-04T17:23:11.142Z,103791.63
2023-02-04T17:25:38.013Z,103797.22
2023-02-04T17:28:04.970Z,103794.09
2023-02-04T17:30:32.058Z,103791.63
2023-02-04T17:32:58.983Z,103791.66
2023-02-04T17:35:26.065Z,103792.63
2023-02-04T17:37:53.862Z,103791.31
2023-02-04T17:40:20.821Z,103789.09
2023-02-04T17:42:47.735Z,103792.28
2023-02-04T17:45:14.625Z,103792.13
2023-02-04T17:47:41.582Z,103800.44
2023-02-04T17:50:10.551Z,103799.53
2023-02-04T17:52:38.343Z,103803.91
2023-02-04T17:55:29.184Z,103807.66
2023-02-04T17:58:00.254Z,103810.81
2023-02-04T18:00:30.791Z,103811.13
2023-02-04T18:02:58.726Z,103814.44
2023-02-04T18:05:28.268Z,103818.97
2023-02-04T18:08:21.623Z,103813.97
2023-02-04T18:10:51.184Z,103806.13
2023-02-04T18:13:20.454Z,103820.00
2023-02-04T18:15:58.387Z,103830.16
2023-02-04T18:18:35.987Z,103829.09
2023-02-04T18:21:41.844Z,103833.13
2023-02-04T18:24:18.784Z,103837.94
2023-02-04T18:26:49.055Z,103829.94
2023-02-04T18:29:38.956Z,103830.50
2023-02-04T18:32:08.837Z,103826.72
2023-02-04T18:34:43.825Z,103823.69
2023-02-04T18:37:41.152Z,103808.41
2023-02-04T18:40:11.604Z,103813.69
2023-02-04T18:42:42.722Z,103803.72
2023-02-04T18:45:31.646Z,103817.00
2023-02-04T18:48:01.418Z,103820.34
2023-02-04T18:50:32.580Z,103818.53
2023-02-04T18:53:15.120Z,103818.53
2023-02-04T18:55:51.774Z,103813.41
2023-02-04T18:58:37.643Z,103802.97
2023-02-04T19:01:10.728Z,103797.41
2023-02-04T19:03:49.103Z,103804.22
2023-02-04T19:06:25.457Z,103815.81
2023-02-04T19:08:53.665Z,103812.97
2023-02-04T19:11:39.010Z,103826.25
2023-02-04T19:14:30.472Z,103809.47
2023-02-04T19:17:29.748Z,103820.94
2023-02-04T19:20:18.038Z,103826.84
2023-02-04T19:22:55.730Z,103831.22
2023-02-04T19:25:46.748Z,103832.13
2023-02-04T19:28:30.279Z,103843.28
2023-02-04T19:31:05.150Z,103840.88
2023-02-04T19:33:43.107Z,103829.91
2023-02-04T19:36:37.138Z,103846.16
2023-02-04T19:39:40.209Z,103844.50
2023-02-04T19:42:31.494Z,103833.59
2023-02-04T19:45:19.377Z,103852.47
2023-02-04T19:47:46.391Z,103850.94
2023-02-04T19:50:13.343Z,103839.91
2023-02-04T19:53:02.010Z,103845.31
2023-02-04T19:55:36.615Z,103839.44
2023-02-04T19:58:16.309Z,103844.56
2023-02-04T20:00:54.196Z,103842.91
2023-02-04T20:03:44.776Z,103843.25
2023-02-04T20:06:27.509Z,103832.75
2023-02-04T20:09:29.151Z,103834.13
2023-02-04T20:12:12.391Z,103845.47
2023-02-04T20:14:49.620Z,103832.50
2023-02-04T20:17:40.710Z,103822.91
2023-02-04T20:20:29.344Z,103830.28
2023-02-04T20:23:27.662Z,103827.88
2023-02-04T20:25:56.198Z,103824.44
2023-02-04T20:28:41.940Z,103834.84
2023-02-04T20:31:39.512Z,103830.78
2023-02-04T20:34:24.608Z,103854.44
2023-02-04T20:36:52.300Z,103843.16
2023-02-04T20:39:28.655Z,103844.06
2023-02-04T20:42:17.741Z,103850.09
2023-02-04T20:44:46.928Z,103849.19
2023-02-04T20:47:25.262Z,103856.63
2023-02-04T20:49:56.352Z,103846.81
2023-02-04T20:52:41.441Z,103860.41
2023-02-04T20:55:23.105Z,103853.31
2023-02-04T20:57:53.482Z,103845.31
2023-02-04T21:00:32.263Z,103845.03
2023-02-04T21:03:26.197Z,103847.16
2023-02-04T21:05:55.764Z,103850.66
2023-02-04T21:08:45.472Z,103860.16
2023-02-04T21:11:12.443Z,103858.97
2023-02-04T21:13:40.951Z,103868.94
2023-02-04T21:16:08.778Z,103874.69
2023-02-04T21:18:35.899Z,103867.72
2023-02-04T21:21:04.987Z,103871.69
2023-02-04T21:23:31.921Z,103865.66
2023-02-04T21:25:58.897Z,103871.41
2023-02-04T21:28:25.931Z,103872.75
2023-02-04T21:30:52.865Z,103880.31
2023-02-04T21:33:19.828Z,103869.13
2023-02-04T21:35:46.796Z,103862.34
2023-02-04T21:38:13.776Z,103869.13
2023-02-04T21:40:40.817Z,103871.69
2023-02-04T21:43:08.328Z,103871.84
2023-02-04T21:45:37.865Z,103863.38
2023-02-04T21:48:06.124Z,103863.53
2023-02-04T21:50:33.179Z,103862.03
2023-02-04T21:53:00.375Z,103861.25
2023-02-04T21:55:28.686Z,103862.19
2023-02-04T21:57:55.600Z,103862.31
2023-02-04T22:00:23.846Z,103850.56
2023-02-04T22:02:52.701Z,103857.47
2023-02-04T22:05:21.535Z,103855.22
2023-02-04T22:07:49.123Z,103846.75
2023-02-04T22:10:25.625Z,103853.06
2023-02-04T22:12:52.763Z,103857.47
2023-02-04T22:15:24.039Z,103848.25
2023-02-04T22:17:53.663Z,103852.78
2023-02-04T22:20:23.118Z,103851.22
2023-02-04T22:22:50.418Z,103854.84
2023-02-04T22:25:20.032Z,103852.44
2023-02-04T22:27:46.981Z,103849.88
2023-02-04T22:30:15.714Z,103845.03
2023-02-04T22:32:42.689Z,103829.19
2023-02-04T22:35:11.265Z,103837.50
2023-02-04T22:37:39.882Z,103831.47
2023-02-04T22:40:08.826Z,103845.94
2023-02-04T22:42:35.724Z,103835.06
2023-02-04T22:45:03.788Z,103833.53
2023-02-04T22:47:31.452Z,103813.81
2023-02-04T22:49:58.408Z,103829.31
2023-02-04T22:52:25.309Z,103820.88
2023-02-04T22:54:52.725Z,103815.72
2023-02-04T22:57:19.625Z,103813.34
2023-02-04T22:59:46.535Z,103823.44
2023-02-04T23:02:13.488Z,103808.06
2023-02-04T23:04:42.435Z,103826.91
2023-02-04T23:07:11.193Z,103819.34
2023-02-04T23:09:38.097Z,103808.94
2023-02-04T23:12:14.955Z,103808.94
2023-02-04T23:14:47.663Z,103818.16
2023-02-04T23:17:16.581Z,103813.00
2023-02-04T23:19:43.963Z,103811.22
2023-02-04T23:22:12.576Z,103797.19
2023-02-04T23:24:40.691Z,103817.41
2023-02-04T23:27:10.814Z,103812.28
2023-02-04T23:29:39.530Z,103833.53
2023-02-04T23:32:07.299Z,103832.63
2023-02-04T23:34:34.578Z,103822.38
2023-02-04T23:37:01.806Z,103819.81
2023-02-04T23:39:28.824Z,103816.34
2023-02-04T23:41:55.797Z,103816.19
2023-02-04T23:44:23.100Z,103820.72
2023-02-04T23:46:50.058Z,103820.72
2023-02-04T23:49:17.112Z,103818.16
2023-02-04T23:51:44.097Z,103830.97
2023-02-04T23:54:11.026Z,103818.91
2023-02-04T23:56:38.143Z,103820.72
2023-02-04T23:59:05.771Z,103812.13
